createdAt,value
2018-02-21T00:01:51.233Z,39.63
2018-02-21T00:04:18.729Z,41.58
2018-02-21T00:06:46.245Z,38.47
2018-02-21T00:09:13.732Z,40.60
2018-02-21T00:11:41.249Z,41.20
2018-02-21T00:14:09.132Z,35.95
2018-02-21T00:16:36.625Z,39.65
2018-02-21T00:19:04.537Z,39.85
2018-02-21T00:21:32.040Z,38.97
2018-02-21T00:23:59.557Z,38.65
2018-02-21T00:26:27.057Z,39.28
2018-02-21T00:28:54.573Z,41.03
2018-02-21T00:31:22.067Z,39.33
2018-02-21T00:33:49.576Z,40.25
2018-02-21T00:36:17.076Z,41.00
2018-02-21T00:38:44.593Z,38.10
2018-02-21T00:41:12.519Z,39.95
2018-02-21T00:43:40.033Z,41.35
2018-02-21T00:46:07.537Z,40.25
2018-02-21T00:48:35.435Z,38.45
2018-02-21T00:51:03.328Z,37.47
2018-02-21T00:53:31.233Z,38.75
2018-02-21T00:55:59.124Z,38.35
2018-02-21T00:58:27.032Z,35.58
2018-02-21T01:00:54.532Z,37.13
2018-02-21T01:03:22.071Z,41.10
2018-02-21T01:05:49.568Z,38.00
2018-02-21T01:08:17.471Z,37.70
2018-02-21T01:10:44.961Z,38.85
2018-02-21T01:13:12.472Z,40.15
2018-02-21T01:15:39.967Z,40.53
2018-02-21T01:18:07.481Z,38.85
2018-02-21T01:20:35.374Z,38.53
2018-02-21T01:23:03.285Z,37.88
2018-02-21T01:25:30.777Z,40.50
2018-02-21T01:27:58.290Z,38.90
2018-02-21T01:30:25.785Z,39.15
2018-02-21T01:32:53.292Z,35.13
2018-02-21T01:35:20.793Z,38.97
2018-02-21T01:37:48.704Z,37.25
2018-02-21T01:40:16.220Z,33.97
2018-02-21T01:42:43.728Z,39.25
2018-02-21T01:45:11.236Z,38.17
2018-02-21T01:47:39.141Z,36.88
2018-02-21T01:50:06.674Z,36.38
2018-02-21T01:52:34.164Z,37.15
2018-02-21T01:55:01.677Z,33.13
2018-02-21T01:57:29.574Z,37.47
2018-02-21T01:59:57.083Z,36.15
2018-02-21T02:02:24.572Z,37.42
2018-02-21T02:04:52.139Z,38.97
2018-02-21T02:07:19.645Z,35.33
2018-02-21T02:09:47.151Z,36.03
2018-02-21T02:12:14.648Z,36.83
2018-02-21T02:14:42.155Z,37.67
2018-02-21T02:17:09.653Z,37.17
2018-02-21T02:19:37.160Z,38.70
2018-02-21T02:22:04.657Z,36.03
2018-02-21T02:24:32.173Z,37.50
2018-02-21T02:27:00.065Z,37.72
2018-02-21T02:29:27.968Z,34.53
2018-02-21T02:31:55.849Z,37.50
2018-02-21T02:34:23.352Z,36.03
2018-02-21T02:36:50.868Z,37.67
2018-02-21T02:39:30.441Z,36.53
2018-02-21T02:41:58.053Z,39.03
2018-02-21T02:44:25.562Z,40.92
2018-02-21T02:46:53.448Z,38.58
2018-02-21T02:49:21.352Z,36.28
2018-02-21T02:51:48.839Z,37.80
2018-02-21T02:54:16.346Z,37.70
2018-02-21T02:56:43.837Z,37.63
2018-02-21T02:59:11.339Z,35.85
2018-02-21T03:01:38.832Z,38.42
2018-02-21T03:04:06.358Z,34.75
2018-02-21T03:06:33.844Z,34.53
2018-02-21T03:09:01.356Z,35.72
2018-02-21T03:11:28.857Z,34.50
2018-02-21T03:13:56.347Z,35.97
2018-02-21T03:16:23.876Z,34.05
2018-02-21T03:18:51.369Z,36.67
2018-02-21T03:21:18.889Z,35.42
2018-02-21T03:23:46.383Z,37.22
2018-02-21T03:26:13.893Z,37.55
2018-02-21T03:28:41.776Z,37.10
2018-02-21T03:31:09.359Z,37.95
2018-02-21T03:33:37.257Z,37.38
2018-02-21T03:36:05.188Z,38.13
2018-02-21T03:38:32.689Z,35.75
2018-02-21T03:41:00.195Z,36.53
2018-02-21T03:43:27.701Z,38.08
2018-02-21T03:45:55.613Z,37.28
2018-02-21T03:48:23.161Z,35.13
2018-02-21T03:50:50.672Z,34.17
2018-02-21T03:53:18.564Z,36.97
2018-02-21T03:55:46.463Z,37.50
2018-02-21T03:58:13.957Z,36.88
2018-02-21T04:00:41.464Z,35.47
2018-02-21T04:03:08.968Z,34.30
2018-02-21T04:05:36.480Z,33.88
2018-02-21T04:08:04.368Z,33.00
2018-02-21T04:10:31.885Z,36.15
2018-02-21T04:12:59.389Z,33.92
2018-02-21T04:15:26.901Z,32.05
2018-02-21T04:17:54.395Z,32.78
2018-02-21T04:20:21.903Z,31.27
2018-02-21T04:22:49.400Z,34.35
2018-02-21T04:25:16.917Z,32.35
2018-02-21T04:27:44.403Z,34.50
2018-02-21T04:30:11.914Z,32.10
2018-02-21T04:32:39.408Z,34.75
2018-02-21T04:35:07.318Z,33.58
2018-02-21T04:37:34.816Z,30.90
2018-02-21T04:40:02.303Z,34.75
2018-02-21T04:42:29.812Z,36.85
2018-02-21T04:44:57.304Z,31.67
2018-02-21T04:47:24.825Z,32.25
2018-02-21T04:49:52.320Z,37.65
2018-02-21T04:52:19.833Z,35.90
2018-02-21T04:54:53.157Z,38.30
2018-02-21T05:00:23.037Z,37.47
2018-02-21T05:02:50.522Z,39.50
2018-02-21T05:05:18.029Z,39.83
2018-02-21T05:07:45.535Z,38.47
2018-02-21T05:10:13.029Z,39.10
2018-02-21T05:12:40.938Z,38.08
2018-02-21T05:15:08.432Z,40.97
2018-02-21T05:17:36.005Z,39.53
2018-02-21T05:20:03.507Z,42.40
2018-02-21T05:22:31.022Z,40.40
2018-02-21T05:24:58.526Z,43.63
2018-02-21T05:27:26.032Z,41.90
2018-02-21T05:29:53.914Z,41.37
2018-02-21T05:32:21.824Z,43.97
2018-02-21T05:34:49.311Z,41.20
2018-02-21T05:37:16.863Z,42.75
2018-02-21T05:39:44.335Z,43.45
2018-02-21T05:42:11.846Z,41.28
2018-02-21T05:44:39.738Z,44.25
2018-02-21T05:47:07.644Z,41.97
2018-02-21T05:49:35.153Z,43.85
2018-02-21T05:52:02.671Z,44.80
2018-02-21T05:54:30.172Z,47.70
2018-02-21T05:56:57.680Z,42.00
2018-02-21T05:59:25.172Z,41.45
2018-02-21T06:01:52.680Z,42.35
2018-02-21T06:04:20.220Z,46.35
2018-02-21T06:06:48.129Z,44.50
2018-02-21T06:09:15.624Z,43.47
2018-02-21T06:11:43.124Z,44.08
2018-02-21T06:14:10.647Z,43.83
2018-02-21T06:16:38.136Z,43.60
2018-02-21T06:19:06.034Z,41.20
2018-02-21T06:21:33.926Z,44.00
2018-02-21T06:24:01.848Z,43.92
2018-02-21T06:26:29.340Z,42.67
2018-02-21T06:28:56.856Z,43.22
2018-02-21T06:31:24.349Z,42.97
2018-02-21T06:33:51.865Z,42.78
2018-02-21T06:36:19.360Z,44.45
2018-02-21T06:38:46.868Z,44.35
2018-02-21T06:41:14.365Z,45.20
2018-02-21T06:43:41.899Z,44.33
2018-02-21T06:46:09.395Z,45.00
2018-02-21T06:48:36.909Z,42.80
2018-02-21T06:51:04.405Z,44.00
2018-02-21T06:53:31.920Z,43.65
2018-02-21T06:55:59.812Z,46.58
2018-02-21T06:58:27.328Z,58.22
2018-02-21T07:00:54.829Z,65.12
2018-02-21T07:03:22.345Z,78.03
2018-02-21T07:05:49.852Z,54.13
2018-02-21T07:08:17.374Z,50.55
2018-02-21T07:10:44.877Z,52.80
2018-02-21T07:13:12.400Z,48.45
2018-02-21T07:15:39.952Z,47.40
2018-02-21T07:18:07.441Z,45.03
2018-02-21T07:20:34.938Z,48.72
2018-02-21T07:23:02.853Z,51.55
2018-02-21T07:25:30.357Z,49.63
2018-02-21T07:27:57.879Z,47.97
2018-02-21T07:30:25.376Z,47.88
2018-02-21T07:32:52.899Z,46.83
2018-02-21T07:35:20.667Z,45.75
2018-02-21T07:37:48.175Z,48.30
2018-02-21T07:40:15.697Z,50.80
2018-02-21T07:42:43.210Z,46.42
2018-02-21T07:45:10.770Z,44.63
2018-02-21T07:47:38.229Z,43.13
2018-02-21T07:50:05.744Z,45.60
2018-02-21T07:52:33.236Z,48.80
2018-02-21T07:55:01.132Z,48.80
2018-02-21T07:57:29.012Z,49.55
2018-02-21T07:59:56.524Z,51.28
2018-02-21T08:02:24.032Z,48.53
2018-02-21T08:04:51.537Z,48.95
2018-02-21T08:07:19.031Z,50.45
2018-02-21T08:09:46.549Z,49.53
2018-02-21T08:12:14.436Z,47.30
2018-02-21T08:14:42.340Z,50.65
2018-02-21T08:17:09.832Z,50.70
2018-02-21T08:19:37.339Z,50.05
2018-02-21T08:22:04.836Z,48.05
2018-02-21T08:24:32.351Z,48.83
2018-02-21T08:27:00.244Z,48.65
2018-02-21T08:29:28.148Z,47.62
2018-02-21T08:31:56.041Z,48.78
2018-02-21T08:34:23.949Z,46.13
2018-02-21T08:36:51.439Z,47.70
2018-02-21T08:39:18.956Z,49.17
2018-02-21T08:41:46.447Z,48.40
2018-02-21T08:44:13.957Z,46.80
2018-02-21T08:46:41.841Z,47.67
2018-02-21T08:49:09.354Z,44.28
2018-02-21T08:51:36.846Z,44.88
2018-02-21T08:54:04.368Z,44.78
2018-02-21T08:56:31.854Z,42.50
2018-02-21T08:58:59.339Z,44.63
2018-02-21T09:01:26.853Z,43.33
2018-02-21T09:03:54.741Z,42.35
2018-02-21T09:06:22.257Z,42.95
2018-02-21T09:08:49.737Z,41.95
2018-02-21T09:11:17.265Z,39.88
2018-02-21T09:13:44.764Z,41.00
2018-02-21T09:16:12.273Z,38.35
2018-02-21T09:18:39.764Z,36.67
2018-02-21T09:21:07.272Z,37.80
2018-02-21T09:23:34.773Z,39.50
2018-02-21T09:26:02.285Z,36.70
2018-02-21T09:28:30.177Z,37.13
2018-02-21T09:30:58.160Z,37.50
2018-02-21T09:33:25.658Z,35.00
2018-02-21T09:35:53.159Z,35.85
2018-02-21T09:38:20.643Z,38.30
2018-02-21T09:40:48.148Z,37.35
2018-02-21T09:43:15.639Z,37.97
2018-02-21T09:45:43.132Z,35.42
2018-02-21T09:48:10.629Z,32.72
2018-02-21T09:50:38.145Z,36.42
2018-02-21T09:53:06.033Z,36.35
2018-02-21T09:55:33.535Z,33.10
2018-02-21T09:58:01.426Z,34.40
2018-02-21T10:00:29.332Z,33.35
2018-02-21T10:02:56.816Z,31.20
2018-02-21T10:05:24.333Z,29.20
2018-02-21T10:07:51.825Z,29.27
2018-02-21T10:10:19.338Z,32.35
2018-02-21T10:12:47.225Z,32.25
2018-02-21T10:15:15.128Z,30.62
2018-02-21T10:17:43.013Z,32.25
2018-02-21T10:20:10.976Z,28.50
2018-02-21T10:22:38.470Z,29.25
2018-02-21T10:25:05.965Z,29.80
2018-02-21T10:27:33.488Z,28.08
2018-02-21T10:30:01.057Z,30.23
2018-02-21T10:32:28.568Z,28.45
2018-02-21T10:34:56.103Z,29.00
2018-02-21T10:37:23.617Z,27.45
2018-02-21T10:39:51.146Z,26.67
2018-02-21T10:42:18.669Z,25.50
2018-02-21T10:44:46.171Z,27.27
2018-02-21T10:47:13.679Z,25.12
2018-02-21T10:49:41.187Z,25.08
2018-02-21T10:52:09.877Z,23.23
2018-02-21T10:54:37.375Z,24.12
2018-02-21T10:57:04.909Z,24.70
2018-02-21T10:59:32.824Z,25.30
2018-02-21T11:02:00.390Z,26.73
2018-02-21T11:04:28.311Z,25.40
2018-02-21T11:06:55.817Z,24.83
2018-02-21T11:09:24.617Z,25.90
2018-02-21T11:11:52.141Z,26.83
2018-02-21T11:14:19.692Z,24.92
2018-02-21T11:16:47.201Z,25.25
2018-02-21T11:19:14.683Z,26.75
2018-02-21T11:21:42.217Z,27.50
2018-02-21T11:24:10.211Z,27.17
2018-02-21T11:26:37.729Z,26.70
2018-02-21T11:29:05.226Z,25.98
2018-02-21T11:31:32.812Z,24.12
2018-02-21T11:34:00.307Z,25.25
2018-02-21T11:36:28.062Z,25.42
2018-02-21T11:38:55.954Z,23.58
2018-02-21T11:41:23.909Z,25.30
2018-02-21T11:43:51.404Z,24.20
2018-02-21T11:46:18.936Z,23.92
2018-02-21T11:48:46.420Z,22.48
2018-02-21T11:51:13.977Z,22.08
2018-02-21T11:53:41.881Z,23.20
2018-02-21T11:56:09.788Z,20.62
2018-02-21T11:58:37.319Z,25.17
2018-02-21T12:01:04.803Z,24.27
2018-02-21T12:03:32.304Z,24.08
2018-02-21T12:06:00.044Z,26.05
2018-02-21T12:08:27.556Z,25.92
2018-02-21T12:10:55.049Z,24.65
2018-02-21T12:13:22.555Z,26.52
2018-02-21T12:15:50.454Z,24.73
2018-02-21T12:18:18.389Z,25.05
2018-02-21T12:20:46.054Z,24.12
2018-02-21T12:23:13.565Z,26.65
2018-02-21T12:25:41.067Z,23.23
2018-02-21T12:28:08.592Z,28.77
2018-02-21T12:30:36.078Z,27.98
2018-02-21T12:33:03.584Z,25.42
2018-02-21T12:35:31.063Z,28.20
2018-02-21T12:37:58.614Z,26.75
2018-02-21T12:40:32.208Z,28.00
2018-02-21T12:42:59.711Z,27.40
2018-02-21T12:45:27.187Z,26.48
2018-02-21T12:47:54.693Z,29.95
2018-02-21T12:50:22.186Z,29.15
2018-02-21T12:52:49.697Z,29.33
2018-02-21T12:55:17.189Z,30.37
2018-02-21T12:57:44.715Z,27.70
2018-02-21T13:00:12.652Z,22.02
2018-02-21T13:02:40.154Z,30.30
2018-02-21T13:05:07.655Z,30.77
2018-02-21T13:07:35.168Z,30.88
2018-02-21T13:10:03.053Z,33.38
2018-02-21T13:12:30.955Z,30.50
2018-02-21T13:14:58.831Z,34.08
2018-02-21T13:17:26.313Z,31.00
2018-02-21T13:19:53.853Z,34.40
2018-02-21T13:22:21.346Z,29.85
2018-02-21T13:24:48.965Z,31.85
2018-02-21T13:27:16.486Z,31.55
2018-02-21T13:29:43.983Z,33.72
2018-02-21T13:32:11.475Z,32.58
2018-02-21T13:34:38.985Z,33.00
2018-02-21T13:37:06.483Z,31.42
2018-02-21T13:39:34.406Z,31.15
2018-02-21T13:42:01.896Z,33.28
2018-02-21T13:44:29.409Z,31.67
2018-02-21T13:46:56.901Z,29.27
2018-02-21T13:49:24.407Z,33.55
2018-02-21T13:51:52.298Z,22.50
2018-02-21T13:54:19.799Z,28.12
2018-02-21T13:56:47.681Z,30.08
2018-02-21T13:59:15.588Z,30.83
2018-02-21T14:01:43.478Z,31.25
2018-02-21T14:04:11.383Z,30.80
2018-02-21T14:06:38.867Z,31.67
2018-02-21T14:09:06.383Z,30.85
2018-02-21T14:11:33.876Z,31.02
2018-02-21T14:14:01.582Z,31.42
2018-02-21T14:16:29.090Z,29.67
2018-02-21T14:18:56.988Z,28.98
2018-02-21T14:21:24.866Z,30.02
2018-02-21T14:23:52.777Z,27.30
2018-02-21T14:26:20.267Z,29.45
2018-02-21T14:28:47.777Z,29.90
2018-02-21T14:31:15.270Z,29.17
2018-02-21T14:33:42.771Z,30.42
2018-02-21T14:36:10.252Z,26.60
2018-02-21T14:38:37.773Z,28.42
2018-02-21T14:41:05.265Z,27.85
2018-02-21T14:43:32.793Z,30.30
2018-02-21T14:46:00.284Z,29.17
2018-02-21T14:48:27.784Z,26.35
2018-02-21T14:50:55.384Z,28.12
2018-02-21T14:53:23.247Z,28.70
2018-02-21T14:55:50.936Z,30.30
2018-02-21T14:58:18.456Z,29.70
2018-02-21T15:00:45.977Z,30.08
2018-02-21T15:03:13.460Z,29.35
2018-02-21T15:05:41.006Z,30.65
2018-02-21T15:08:08.545Z,30.95
2018-02-21T15:10:36.065Z,27.85
2018-02-21T15:13:03.565Z,31.00
2018-02-21T15:15:31.068Z,32.33
2018-02-21T15:17:58.948Z,33.03
2018-02-21T15:20:26.455Z,31.62
2018-02-21T15:22:53.936Z,31.83
2018-02-21T15:25:21.441Z,31.80
2018-02-21T15:27:49.340Z,33.40
2018-02-21T15:30:17.245Z,33.28
2018-02-21T15:32:44.812Z,32.65
2018-02-21T15:35:12.731Z,33.28
2018-02-21T15:37:40.254Z,33.67
2018-02-21T15:40:07.763Z,29.83
2018-02-21T15:42:35.652Z,31.92
2018-02-21T15:45:03.160Z,30.35
2018-02-21T15:47:30.647Z,29.45
2018-02-21T15:49:58.152Z,31.42
2018-02-21T15:52:25.652Z,30.58
2018-02-21T15:54:53.174Z,32.00
2018-02-21T15:57:21.977Z,31.20
2018-02-21T15:59:49.502Z,29.65
2018-02-21T16:02:17.036Z,29.58
2018-02-21T16:04:44.569Z,28.65
2018-02-21T16:07:12.065Z,30.75
2018-02-21T16:09:39.714Z,29.85
2018-02-21T16:12:07.600Z,29.50
2018-02-21T16:14:35.155Z,28.45
2018-02-21T16:17:02.646Z,27.62
2018-02-21T16:19:30.133Z,29.50
2018-02-21T16:21:57.649Z,28.35
2018-02-21T16:24:25.540Z,25.12
2018-02-21T16:26:53.435Z,26.23
2018-02-21T16:29:20.985Z,27.08
2018-02-21T16:31:48.493Z,27.65
2018-02-21T16:34:16.393Z,26.17
2018-02-21T16:36:44.301Z,26.77
2018-02-21T16:39:11.797Z,23.85
2018-02-21T16:41:39.314Z,26.10
2018-02-21T16:44:06.871Z,26.25
2018-02-21T16:46:34.390Z,24.60
2018-02-21T16:49:01.884Z,24.63
2018-02-21T16:51:29.409Z,22.60
2018-02-21T16:54:02.569Z,25.27
2018-02-21T16:56:30.085Z,24.35
2018-02-21T16:58:58.020Z,24.35
2018-02-21T17:01:25.525Z,24.25
2018-02-21T17:03:53.020Z,23.08
2018-02-21T17:06:20.548Z,23.02
2018-02-21T17:08:48.057Z,21.75
2018-02-21T17:11:15.559Z,22.65
2018-02-21T17:13:43.040Z,19.85
2018-02-21T17:16:10.541Z,20.35
2018-02-21T17:18:38.042Z,21.92
2018-02-21T17:21:05.984Z,21.65
2018-02-21T17:23:33.481Z,20.83
2018-02-21T17:26:01.026Z,22.20
2018-02-21T17:28:28.504Z,21.77
2018-02-21T17:30:56.026Z,22.45
2018-02-21T17:33:23.521Z,22.42
2018-02-21T17:35:51.035Z,20.23
2018-02-21T17:38:18.517Z,21.17
2018-02-21T17:40:51.885Z,18.40
2018-02-21T17:43:19.769Z,19.33
2018-02-21T17:45:47.647Z,19.87
2018-02-21T17:48:15.160Z,21.00
2018-02-21T17:50:42.653Z,20.52
2018-02-21T17:53:10.566Z,21.80
2018-02-21T17:55:38.081Z,21.15
2018-02-21T17:58:05.598Z,20.98
2018-02-21T18:00:33.096Z,20.08
2018-02-21T18:03:01.009Z,18.40
2018-02-21T18:05:28.513Z,22.30
2018-02-21T18:07:56.026Z,19.20
2018-02-21T18:10:23.517Z,19.87
2018-02-21T18:12:51.120Z,21.15
2018-02-21T18:15:18.658Z,20.52
2018-02-21T18:17:46.168Z,21.35
2018-02-21T18:20:13.669Z,20.30
2018-02-21T18:22:41.168Z,19.65
2018-02-21T18:25:08.652Z,21.42
2018-02-21T18:27:36.568Z,20.83
2018-02-21T18:30:04.098Z,22.10
2018-02-21T18:32:31.629Z,21.60
2018-02-21T18:34:59.516Z,21.40
2018-02-21T18:37:27.029Z,22.27
2018-02-21T18:39:54.521Z,23.02
2018-02-21T18:42:22.024Z,21.12
2018-02-21T18:44:49.521Z,22.00
2018-02-21T18:47:17.033Z,23.95
2018-02-21T18:49:44.531Z,24.15
2018-02-21T18:52:12.438Z,22.10
2018-02-21T18:54:40.326Z,21.42
2018-02-21T18:57:07.860Z,22.23
2018-02-21T18:59:35.353Z,22.58
2018-02-21T19:02:02.865Z,22.87
2018-02-21T19:04:30.356Z,21.58
2018-02-21T19:06:57.867Z,22.92
2018-02-21T19:09:25.668Z,23.08
2018-02-21T19:11:53.155Z,22.95
2018-02-21T19:14:20.708Z,22.62
2018-02-21T19:16:48.280Z,22.10
2018-02-21T19:19:15.829Z,21.17
2018-02-21T19:21:43.311Z,22.98
2018-02-21T19:24:10.815Z,21.70
2018-02-21T19:26:38.305Z,21.80
2018-02-21T19:29:05.825Z,22.92
2018-02-21T19:31:33.320Z,22.85
2018-02-21T19:34:01.225Z,21.37
2018-02-21T19:36:29.112Z,23.65
2018-02-21T19:38:56.666Z,21.75
2018-02-21T19:41:24.165Z,23.27
2018-02-21T19:43:51.682Z,22.70
2018-02-21T19:46:19.623Z,22.45
2018-02-21T19:48:47.133Z,23.60
2018-02-21T19:51:14.629Z,28.75
2018-02-21T19:53:42.136Z,21.60
2018-02-21T19:56:09.641Z,23.50
2018-02-21T19:58:37.531Z,22.80
2018-02-21T20:01:05.011Z,21.90
2018-02-21T20:03:32.921Z,20.95
2018-02-21T20:06:00.804Z,22.95
2018-02-21T20:08:28.300Z,21.17
2018-02-21T20:10:55.793Z,21.75
2018-02-21T20:13:23.309Z,21.02
2018-02-21T20:15:50.800Z,21.15
2018-02-21T20:18:18.388Z,23.65
2018-02-21T20:20:45.905Z,21.92
2018-02-21T20:23:13.418Z,21.90
2018-02-21T20:25:40.898Z,24.87
2018-02-21T20:28:08.497Z,22.10
2018-02-21T20:30:36.389Z,22.65
2018-02-21T20:33:03.900Z,20.85
2018-02-21T20:35:31.809Z,24.37
2018-02-21T20:37:59.301Z,23.45
2018-02-21T20:40:26.808Z,22.20
2018-02-21T20:42:54.320Z,22.55
2018-02-21T20:45:21.816Z,22.85
2018-02-21T20:47:49.298Z,22.62
2018-02-21T20:50:16.804Z,20.52
2018-02-21T20:52:44.688Z,23.85
2018-02-21T20:55:12.591Z,23.58
2018-02-21T20:57:40.112Z,22.92
2018-02-21T21:00:07.626Z,23.30
2018-02-21T21:02:35.103Z,23.48
2018-02-21T21:05:02.605Z,24.40
2018-02-21T21:07:30.094Z,24.60
2018-02-21T21:09:57.612Z,23.02
2018-02-21T21:12:25.501Z,21.87
2018-02-21T21:14:53.013Z,24.70
2018-02-21T21:17:20.540Z,24.60
2018-02-21T21:19:48.039Z,22.73
2018-02-21T21:22:15.533Z,22.25
2018-02-21T21:24:43.051Z,21.85
2018-02-21T21:27:10.937Z,26.50
2018-02-21T21:29:38.845Z,24.20
2018-02-21T21:32:06.725Z,24.50
2018-02-21T21:34:34.244Z,24.55
2018-02-21T21:37:01.748Z,24.23
2018-02-21T21:39:29.260Z,24.12
2018-02-21T21:41:56.744Z,26.40
2018-02-21T21:44:24.258Z,25.08
2018-02-21T21:46:51.761Z,24.02
2018-02-21T21:49:19.280Z,23.62
2018-02-21T21:51:47.160Z,23.65
2018-02-21T21:54:14.681Z,24.40
2018-02-21T21:56:42.257Z,26.30
2018-02-21T21:59:10.150Z,25.77
2018-02-21T22:01:38.061Z,25.90
2018-02-21T22:04:05.554Z,24.80
2018-02-21T22:06:33.066Z,24.65
2018-02-21T22:09:00.551Z,25.33
2018-02-21T22:11:28.061Z,24.48
2018-02-21T22:13:55.561Z,25.90
2018-02-21T22:16:23.082Z,26.30
2018-02-21T22:18:50.968Z,24.87
2018-02-21T22:21:18.484Z,26.12
2018-02-21T22:23:45.980Z,28.50
2018-02-21T22:26:13.501Z,26.50
2018-02-21T22:28:41.017Z,27.25
2018-02-21T22:31:08.541Z,26.62
2018-02-21T22:33:36.436Z,27.52
2018-02-21T22:36:03.954Z,27.62
2018-02-21T22:38:31.439Z,26.55
2018-02-21T22:40:58.959Z,27.45
2018-02-21T22:43:26.451Z,27.33
2018-02-21T22:45:53.961Z,29.27
2018-02-21T22:48:21.847Z,27.92
2018-02-21T22:50:49.358Z,27.40
2018-02-21T22:53:17.248Z,26.40
2018-02-21T22:55:44.840Z,24.85
2018-02-21T22:58:12.332Z,25.48
2018-02-21T23:00:39.835Z,26.52
2018-02-21T23:03:07.716Z,27.20
2018-02-21T23:05:35.233Z,26.65
2018-02-21T23:08:03.129Z,27.15
2018-02-21T23:10:31.037Z,26.42
2018-02-21T23:12:58.523Z,28.67
2018-02-21T23:15:26.433Z,26.33
2018-02-21T23:17:53.933Z,28.33
2018-02-21T23:20:21.457Z,24.92
2018-02-21T23:22:48.955Z,26.42
2018-02-21T23:25:16.443Z,25.85
2018-02-21T23:27:43.958Z,28.00
2018-02-21T23:30:11.866Z,28.80
2018-02-21T23:32:39.400Z,25.83
2018-02-21T23:35:06.892Z,25.30
2018-02-21T23:37:34.404Z,25.77
2018-02-21T23:40:01.904Z,26.60
2018-02-21T23:42:29.830Z,26.87
2018-02-21T23:44:57.328Z,25.70
2018-02-21T23:47:24.841Z,25.30
2018-02-21T23:49:52.452Z,24.67
2018-02-21T23:52:19.960Z,25.30
2018-02-21T23:54:47.860Z,23.38
2018-02-21T23:57:15.376Z,25.55
2018-02-21T23:59:42.905Z,25.45
